^^
Marion, Virginia Banner
 

Adwolf, VA. Station Historical Data
[ Providing Data Since 6/07/2007 ]
Station Historical Data
 
Daily Summary for April 24, 2017 Units:  Both    English   Metric
« Previous Day
Next Day »
Daily Weekly Monthly Yearly Custom
  Current: High: Low: Average:
Temperature: 47.4 °F /  8.6 °C 47.5 °F /  8.6 °C 45.5 °F /  7.5 °C 46.3 °F /  7.9 °C
Dew Point: 45.4 °F /  7.4 °C 45.4 °F /  7.4 °C 44.1 °F /  6.7 °C 44.7 °F /  7.1 °C
Humidity: 93% 96% 92% 94%
Wind Speed: 11.5mph /  18.5km/h 17.3mph /  27.8km/h - 9.7mph /  15.6km/h
Wind Gust: 11.5mph /  18.5km/h 17.3mph /  27.8km/h - -
WindNNE - - NE
Pressure: 29.90 in /  1012.4 hPa 30.01 in /  1016.1 hPa 29.89 in /  1012.1 hPa -
Precipitation: 0.25 in /  6.35 mm      
Historical Graphs
 
 
Tabular Data for April 24, 2017
Time Temperature Dew Point Pressure Wind Wind Speed Wind Gust Humidity Rainfall Rate (Hourly) solar Conditions
00:00 45.7 °F /  7.6 °C 44.3 °F /  6.8 °C 30.01in /  1016.1hPa NE 3.5mph /  5.6km/h 3.5mph /  5.6km/h 95% 0.06in /  1.52mm WeatherDisplay:10.37 W/m2 RA
00:05 45.7 °F /  7.6 °C 44.3 °F /  6.8 °C 30.00in /  1015.8hPa NNE 4.6mph /  7.4km/h 4.6mph /  7.4km/h 95% 0.05in /  1.27mm WeatherDisplay:10.37 W/m2 -RA
00:10 45.6 °F /  7.6 °C 44.2 °F /  6.8 °C 30.00in /  1015.8hPa NNE 9.2mph /  14.8km/h 9.2mph /  14.8km/h 95% 0.06in /  1.52mm WeatherDisplay:10.37 W/m2 -RA
00:15 45.6 °F /  7.6 °C 44.2 °F /  6.8 °C 29.99in /  1015.5hPa NNE 9.2mph /  14.8km/h 9.2mph /  14.8km/h 95% 0.06in /  1.52mm WeatherDisplay:10.37 W/m2 -RA
00:20 45.6 °F /  7.6 °C 44.2 °F /  6.8 °C 29.99in /  1015.5hPa NE 3.5mph /  5.6km/h 3.5mph /  5.6km/h 95% 0.07in /  1.78mm WeatherDisplay:10.37 W/m2 -RA
00:25 45.6 °F /  7.6 °C 44.2 °F /  6.8 °C 29.99in /  1015.5hPa NE 10.4mph /  16.7km/h 10.4mph /  16.7km/h 95% 0.06in /  1.52mm WeatherDisplay:10.37 W/m2 -RA
00:30 45.6 °F /  7.6 °C 44.2 °F /  6.8 °C 30.00in /  1015.8hPa ENE 6.9mph /  11.1km/h 6.9mph /  11.1km/h 95% 0.07in /  1.78mm WeatherDisplay:10.37 W/m2 -RA
00:35 45.6 °F /  7.6 °C 44.2 °F /  6.8 °C 29.99in /  1015.5hPa ENE 4.6mph /  7.4km/h 4.6mph /  7.4km/h 95% 0.06in /  1.52mm WeatherDisplay:10.37 W/m2 -RA
00:40 45.5 °F /  7.5 °C 44.1 °F /  6.7 °C 29.99in /  1015.5hPa NNE 8.1mph /  13km/h 8.1mph /  13km/h 95% 0.07in /  1.78mm WeatherDisplay:10.37 W/m2 -RA
00:45 45.6 °F /  7.6 °C 44.2 °F /  6.8 °C 29.99in /  1015.5hPa ENE 5.0mph /  8km/h 5.0mph /  8km/h 95% 0.09in /  2.29mm WeatherDisplay:10.37 W/m2 -RA
00:50 45.5 °F /  7.5 °C 44.1 °F /  6.7 °C 29.99in /  1015.5hPa NE 8.1mph /  13km/h 8.1mph /  13km/h 95% 0.09in /  2.29mm WeatherDisplay:10.37 W/m2 -RA
00:55 45.5 °F /  7.5 °C 44.1 °F /  6.7 °C 29.99in /  1015.5hPa NE 8.1mph /  13km/h 8.1mph /  13km/h 95% 0.09in /  2.29mm WeatherDisplay:10.37 W/m2 -RA
01:00 45.6 °F /  7.6 °C 44.2 °F /  6.8 °C 29.99in /  1015.5hPa NNE 6.9mph /  11.1km/h 6.9mph /  11.1km/h 95% 0.10in /  2.54mm WeatherDisplay:10.37 W/m2 -RA
01:05 45.6 °F /  7.6 °C 44.2 °F /  6.8 °C 29.99in /  1015.5hPa NE 11.5mph /  18.5km/h 11.5mph /  18.5km/h 95% 0.09in /  2.29mm WeatherDisplay:10.37 W/m2 -RA
01:10 45.6 °F /  7.6 °C 44.2 °F /  6.8 °C 29.99in /  1015.5hPa NNE 11.5mph /  18.5km/h 11.5mph /  18.5km/h 95% 0.08in /  2.03mm WeatherDisplay:10.37 W/m2 -RA
01:15 45.6 °F /  7.6 °C 44.2 °F /  6.8 °C 29.98in /  1015.1hPa North 12.7mph /  20.4km/h 12.7mph /  20.4km/h 95% 0.08in /  2.03mm WeatherDisplay:10.37 W/m2 -RA
01:20 45.6 °F /  7.6 °C 44.2 °F /  6.8 °C 29.98in /  1015.1hPa NE 17.3mph /  27.8km/h 17.3mph /  27.8km/h 95% 0.07in /  1.78mm WeatherDisplay:10.37 W/m2 -RA
01:25 45.6 °F /  7.6 °C 44.2 °F /  6.8 °C 29.98in /  1015.1hPa NNE 9.2mph /  14.8km/h 9.2mph /  14.8km/h 95% 0.08in /  2.03mm WeatherDisplay:10.37 W/m2 -RA
01:30 45.6 °F /  7.6 °C 44.2 °F /  6.8 °C 29.98in /  1015.1hPa NE 11.5mph /  18.5km/h 11.5mph /  18.5km/h 95% 0.07in /  1.78mm WeatherDisplay:10.37 W/m2 -RA
01:35 45.6 °F /  7.6 °C 44.2 °F /  6.8 °C 29.97in /  1014.8hPa NE 10.4mph /  16.7km/h 10.4mph /  16.7km/h 95% 0.07in /  1.78mm WeatherDisplay:10.37 W/m2 -RA
01:40 45.6 °F /  7.6 °C 44.2 °F /  6.8 °C 29.97in /  1014.8hPa NE 12.7mph /  20.4km/h 12.7mph /  20.4km/h 95% 0.05in /  1.27mm WeatherDisplay:10.37 W/m2 -RA
01:45 45.6 °F /  7.6 °C 44.2 °F /  6.8 °C 29.97in /  1014.8hPa NE 10.4mph /  16.7km/h 10.4mph /  16.7km/h 95% 0.03in /  0.76mm WeatherDisplay:10.37 W/m2 OVC
01:50 45.6 °F /  7.6 °C 44.2 °F /  6.8 °C 29.96in /  1014.4hPa ENE 10.4mph /  16.7km/h 10.4mph /  16.7km/h 95% 0.03in /  0.76mm WeatherDisplay:10.37 W/m2 OVC
01:55 45.7 °F /  7.6 °C 44.3 °F /  6.8 °C 29.96in /  1014.4hPa NE 11.5mph /  18.5km/h 11.5mph /  18.5km/h 95% 0.03in /  0.76mm WeatherDisplay:10.37 W/m2 OVC
02:00 45.7 °F /  7.6 °C 44.3 °F /  6.8 °C 29.96in /  1014.4hPa ENE 8.1mph /  13km/h 8.1mph /  13km/h 95% 0.03in /  0.76mm WeatherDisplay:10.37 W/m2 RA
02:05 45.6 °F /  7.6 °C 44.2 °F /  6.8 °C 29.96in /  1014.4hPa NE 11.5mph /  18.5km/h 11.5mph /  18.5km/h 95% 0.03in /  0.76mm WeatherDisplay:10.37 W/m2 -RA
02:10 45.7 °F /  7.6 °C 44.3 °F /  6.8 °C 29.96in /  1014.4hPa NNE 4.6mph /  7.4km/h 4.6mph /  7.4km/h 95% 0.03in /  0.76mm WeatherDisplay:10.37 W/m2 -RA
02:15 45.7 °F /  7.6 °C 44.3 °F /  6.8 °C 29.95in /  1014.1hPa North 10.4mph /  16.7km/h 10.4mph /  16.7km/h 95% 0.02in /  0.51mm WeatherDisplay:10.37 W/m2 -RA
02:20 45.7 °F /  7.6 °C 44.3 °F /  6.8 °C 29.95in /  1014.1hPa ENE 11.5mph /  18.5km/h 11.5mph /  18.5km/h 95% 0.02in /  0.51mm WeatherDisplay:10.37 W/m2 -RA
02:25 45.8 °F /  7.7 °C 44.4 °F /  6.9 °C 29.95in /  1014.1hPa NE 10.4mph /  16.7km/h 10.4mph /  16.7km/h 95% 0.01in /  0.25mm WeatherDisplay:10.37 W/m2 -RA
02:30 45.8 °F /  7.7 °C 44.4 °F /  6.9 °C 29.95in /  1014.1hPa NE 10.4mph /  16.7km/h 10.4mph /  16.7km/h 95% 0.01in /  0.25mm WeatherDisplay:10.37 W/m2 -RA
02:35 45.9 °F /  7.7 °C 44.5 °F /  6.9 °C 29.95in /  1014.1hPa NE 12.7mph /  20.4km/h 12.7mph /  20.4km/h 95% 0.01in /  0.25mm WeatherDisplay:10.37 W/m2 -RA
02:40 45.9 °F /  7.7 °C 44.5 °F /  6.9 °C 29.95in /  1014.1hPa East 9.2mph /  14.8km/h 9.2mph /  14.8km/h 95% 0.01in /  0.25mm WeatherDisplay:10.37 W/m2 -RA
02:45 45.9 °F /  7.7 °C 44.5 °F /  6.9 °C 29.95in /  1014.1hPa NE 4.6mph /  7.4km/h 4.6mph /  7.4km/h 95% 0.01in /  0.25mm WeatherDisplay:10.37 W/m2 OVC
02:50 45.9 °F /  7.7 °C 44.5 °F /  6.9 °C 29.95in /  1014.1hPa NE 10.4mph /  16.7km/h 10.4mph /  16.7km/h 95% 0.02in /  0.51mm WeatherDisplay:10.37 W/m2 RA
02:55 45.9 °F /  7.7 °C 44.5 °F /  6.9 °C 29.94in /  1013.8hPa NNE 10.4mph /  16.7km/h 10.4mph /  16.7km/h 95% 0.03in /  0.76mm WeatherDisplay:10.37 W/m2 RA
03:00 45.9 °F /  7.7 °C 44.5 °F /  6.9 °C 29.95in /  1014.1hPa NE 5.8mph /  9.3km/h 5.8mph /  9.3km/h 95% 0.02in /  0.51mm WeatherDisplay:10.37 W/m2 RA
03:05 45.9 °F /  7.7 °C 44.5 °F /  6.9 °C 29.94in /  1013.8hPa NNE 10.4mph /  16.7km/h 10.4mph /  16.7km/h 95% 0.03in /  0.76mm WeatherDisplay:10.37 W/m2 RA
03:10 45.8 °F /  7.7 °C 44.4 °F /  6.9 °C 29.94in /  1013.8hPa NNE 11.5mph /  18.5km/h 11.5mph /  18.5km/h 95% 0.04in /  1.02mm WeatherDisplay:10.37 W/m2 RA
03:15 45.8 °F /  7.7 °C 44.4 °F /  6.9 °C 29.94in /  1013.8hPa East 11.5mph /  18.5km/h 11.5mph /  18.5km/h 95% 0.05in /  1.27mm WeatherDisplay:10.37 W/m2 RA
03:20 45.8 °F /  7.7 °C 44.4 °F /  6.9 °C 29.93in /  1013.4hPa NNE 6.9mph /  11.1km/h 6.9mph /  11.1km/h 95% 0.05in /  1.27mm WeatherDisplay:10.37 W/m2 RA
03:25 45.8 °F /  7.7 °C 44.7 °F /  7.1 °C 29.93in /  1013.4hPa ENE 8.0mph /  12.9km/h 8.0mph /  12.9km/h 96% 0.06in /  1.52mm WeatherDisplay:10.37 W/m2 RA
03:30 45.8 °F /  7.7 °C 44.7 °F /  7.1 °C 29.92in /  1013.1hPa East 10.0mph /  16.1km/h 10.0mph /  16.1km/h 96% 0.07in /  1.78mm WeatherDisplay:10.37 W/m2 RA
03:35 45.9 °F /  7.7 °C 44.8 °F /  7.1 °C 29.91in /  1012.8hPa ENE 12.7mph /  20.4km/h 12.7mph /  20.4km/h 96% 0.08in /  2.03mm WeatherDisplay:10.37 W/m2 RA
03:40 45.8 °F /  7.7 °C 44.7 °F /  7.1 °C 29.91in /  1012.8hPa East 10.4mph /  16.7km/h 10.4mph /  16.7km/h 96% 0.09in /  2.29mm WeatherDisplay:10.37 W/m2 RA
03:45 45.9 °F /  7.7 °C 44.8 °F /  7.1 °C 29.91in /  1012.8hPa ENE 10.0mph /  16.1km/h 10.0mph /  16.1km/h 96% 0.10in /  2.54mm WeatherDisplay:10.37 W/m2 RA
03:50 46.0 °F /  7.8 °C 44.9 °F /  7.2 °C 29.92in /  1013.1hPa ENE 9.2mph /  14.8km/h 9.2mph /  14.8km/h 96% 0.10in /  2.54mm WeatherDisplay:10.37 W/m2 RA
03:55 46.1 °F /  7.8 °C 45.0 °F /  7.2 °C 29.92in /  1013.1hPa NE 8.1mph /  13km/h 8.1mph /  13km/h 96% 0.09in /  2.29mm WeatherDisplay:10.37 W/m2 RA
04:00 46.2 °F /  7.9 °C 45.1 °F /  7.3 °C 29.91in /  1012.8hPa NE 12.7mph /  20.4km/h 12.7mph /  20.4km/h 96% 0.09in /  2.29mm WeatherDisplay:10.37 W/m2 OVC
04:05 46.4 °F /  8 °C 45.0 °F /  7.2 °C 29.91in /  1012.8hPa NNE 10.4mph /  16.7km/h 10.4mph /  16.7km/h 95% 0.09in /  2.29mm WeatherDisplay:10.37 W/m2 RA
04:10 46.5 °F /  8.1 °C 45.1 °F /  7.3 °C 29.91in /  1012.8hPa NE 12.7mph /  20.4km/h 12.7mph /  20.4km/h 95% 0.08in /  2.03mm WeatherDisplay:10.37 W/m2 RA
04:15 46.5 °F /  8.1 °C 44.8 °F /  7.1 °C 29.91in /  1012.8hPa NE 11.5mph /  18.5km/h 11.5mph /  18.5km/h 94% 0.07in /  1.78mm WeatherDisplay:10.37 W/m2 OVC
04:20 46.6 °F /  8.1 °C 44.9 °F /  7.2 °C 29.91in /  1012.8hPa NNE 11.5mph /  18.5km/h 11.5mph /  18.5km/h 94% 0.07in /  1.78mm WeatherDisplay:10.37 W/m2 OVC
04:25 46.6 °F /  8.1 °C 44.9 °F /  7.2 °C 29.90in /  1012.4hPa NNE 17.3mph /  27.8km/h 17.3mph /  27.8km/h 94% 0.06in /  1.52mm WeatherDisplay:10.37 W/m2 OVC
04:30 46.6 °F /  8.1 °C 44.9 °F /  7.2 °C 29.90in /  1012.4hPa NNE 11.5mph /  18.5km/h 11.5mph /  18.5km/h 94% 0.06in /  1.52mm WeatherDisplay:10.37 W/m2 RA
04:31 46.6 °F /  8.1 °C 44.9 °F /  7.2 °C 29.91in /  1012.8hPa NNE 11.5mph /  18.5km/h 11.5mph /  18.5km/h 94% 0.06in /  1.52mm WeatherDisplay:10.37 W/m2 RA
04:36 46.5 °F /  8.1 °C 44.8 °F /  7.1 °C 29.91in /  1012.8hPa NNE 11.5mph /  18.5km/h 11.5mph /  18.5km/h 94% 0.05in /  1.27mm WeatherDisplay:10.37 W/m2 RA
04:41 46.5 °F /  8.1 °C 44.8 °F /  7.1 °C 29.90in /  1012.4hPa NE 10.4mph /  16.7km/h 10.4mph /  16.7km/h 94% 0.04in /  1.02mm WeatherDisplay:10.37 W/m2 -RA
04:46 46.5 °F /  8.1 °C 44.8 °F /  7.1 °C 29.89in /  1012.1hPa NE 8.1mph /  13km/h 8.1mph /  13km/h 94% 0.03in /  0.76mm WeatherDisplay:10.37 W/m2 -RA
04:51 46.5 °F /  8.1 °C 45.1 °F /  7.3 °C 29.90in /  1012.4hPa NNE 10.4mph /  16.7km/h 10.4mph /  16.7km/h 95% 0.02in /  0.51mm WeatherDisplay:10.37 W/m2 -RA
04:56 46.5 °F /  8.1 °C 45.1 °F /  7.3 °C 29.90in /  1012.4hPa NE 6.0mph /  9.7km/h 6.0mph /  9.7km/h 95% 0.02in /  0.51mm WeatherDisplay:10.37 W/m2 -RA
05:01 46.6 °F /  8.1 °C 44.9 °F /  7.2 °C 29.89in /  1012.1hPa NNE 8.0mph /  12.9km/h 8.0mph /  12.9km/h 94% 0.02in /  0.51mm WeatherDisplay:10.37 W/m2 -RA
05:06 46.7 °F /  8.2 °C 45.0 °F /  7.2 °C 29.89in /  1012.1hPa ENE 8.0mph /  12.9km/h 8.0mph /  12.9km/h 94% 0.01in /  0.25mm WeatherDisplay:10.37 W/m2 -RA
05:11 46.8 °F /  8.2 °C 45.1 °F /  7.3 °C 29.89in /  1012.1hPa NNE 5.0mph /  8km/h 5.0mph /  8km/h 94% 0.01in /  0.25mm WeatherDisplay:10.37 W/m2 -RA
05:16 46.9 °F /  8.3 °C 45.2 °F /  7.3 °C 29.90in /  1012.4hPa East 6.9mph /  11.1km/h 6.9mph /  11.1km/h 94% 0.01in /  0.25mm WeatherDisplay:10.37 W/m2 -RA
05:21 47.0 °F /  8.3 °C 45.3 °F /  7.4 °C 29.90in /  1012.4hPa NNE 10.4mph /  16.7km/h 10.4mph /  16.7km/h 94% 0.01in /  0.25mm WeatherDisplay:10.37 W/m2 OVC
05:26 47.0 °F /  8.3 °C 45.0 °F /  7.2 °C 29.90in /  1012.4hPa East 5.8mph /  9.3km/h 5.8mph /  9.3km/h 93% 0.01in /  0.25mm WeatherDisplay:10.37 W/m2 OVC
05:31 47.1 °F /  8.4 °C 45.1 °F /  7.3 °C 29.90in /  1012.4hPa NE 11.5mph /  18.5km/h 11.5mph /  18.5km/h 93% 0.00in /  0mm WeatherDisplay:10.37 W/m2 OVC
05:36 47.1 °F /  8.4 °C 45.1 °F /  7.3 °C 29.90in /  1012.4hPa NNE 6.9mph /  11.1km/h 6.9mph /  11.1km/h 93% 0.00in /  0mm WeatherDisplay:10.37 W/m2 OVC
05:41 47.0 °F /  8.3 °C 45.0 °F /  7.2 °C 29.90in /  1012.4hPa NNE 10.4mph /  16.7km/h 10.4mph /  16.7km/h 93% 0.00in /  0mm WeatherDisplay:10.37 W/m2 -RA
05:46 47.1 °F /  8.4 °C 45.1 °F /  7.3 °C 29.90in /  1012.4hPa NNE 10.0mph /  16.1km/h 10.0mph /  16.1km/h 93% 0.00in /  0mm WeatherDisplay:10.37 W/m2 -RA
05:51 47.1 °F /  8.4 °C 45.1 °F /  7.3 °C 29.90in /  1012.4hPa ENE 11.5mph /  18.5km/h 11.5mph /  18.5km/h 93% 0.00in /  0mm WeatherDisplay:10.37 W/m2 -RA
05:56 47.1 °F /  8.4 °C 45.1 °F /  7.3 °C 29.90in /  1012.4hPa ENE 9.0mph /  14.5km/h 9.0mph /  14.5km/h 93% 0.00in /  0mm WeatherDisplay:10.37 W/m2 -RA
06:01 47.2 °F /  8.4 °C 45.2 °F /  7.3 °C 29.90in /  1012.4hPa NNE 10.4mph /  16.7km/h 10.4mph /  16.7km/h 93% 0.00in /  0mm WeatherDisplay:10.37 W/m2 OVC
06:06 47.3 °F /  8.5 °C 45.1 °F /  7.3 °C 29.90in /  1012.4hPa NNE 11.5mph /  18.5km/h 11.5mph /  18.5km/h 92% 0.00in /  0mm WeatherDisplay:10.37 W/m2 OVC
06:11 47.3 °F /  8.5 °C 45.1 °F /  7.3 °C 29.90in /  1012.4hPa North 8.1mph /  13km/h 8.1mph /  13km/h 92% 0.00in /  0mm WeatherDisplay:10.37 W/m2 OVC
06:16 47.3 °F /  8.5 °C 45.1 °F /  7.3 °C 29.90in /  1012.4hPa NE 10.4mph /  16.7km/h 10.4mph /  16.7km/h 92% 0.00in /  0mm WeatherDisplay:10.37 W/m2 OVC
06:21 47.2 °F /  8.4 °C 45.0 °F /  7.2 °C 29.90in /  1012.4hPa North 6.9mph /  11.1km/h 6.9mph /  11.1km/h 92% 0.00in /  0mm WeatherDisplay:10.37 W/m2 -RA
06:26 47.2 °F /  8.4 °C 45.2 °F /  7.3 °C 29.90in /  1012.4hPa NNE 11.5mph /  18.5km/h 11.5mph /  18.5km/h 93% 0.00in /  0mm WeatherDisplay:10.37 W/m2 -RA
06:31 47.4 °F /  8.6 °C 45.2 °F /  7.3 °C 29.90in /  1012.4hPa NNE 9.2mph /  14.8km/h 9.2mph /  14.8km/h 92% 0.00in /  0mm WeatherDisplay:10.37 W/m2 -RA
06:36 47.4 °F /  8.6 °C 45.2 °F /  7.3 °C 29.90in /  1012.4hPa NNE 12.7mph /  20.4km/h 12.7mph /  20.4km/h 92% 0.00in /  0mm WeatherDisplay:10.37 W/m2 -RA
06:41 47.3 °F /  8.5 °C 45.1 °F /  7.3 °C 29.90in /  1012.4hPa NNE 12.7mph /  20.4km/h 12.7mph /  20.4km/h 92% 0.00in /  0mm WeatherDisplay:10.37 W/m2 -DZ
06:46 47.4 °F /  8.6 °C 45.2 °F /  7.3 °C 29.90in /  1012.4hPa NNE 8.1mph /  13km/h 8.1mph /  13km/h 92% 0.00in /  0mm WeatherDisplay:10.37 W/m2 -DZ
06:51 47.4 °F /  8.6 °C 45.2 °F /  7.3 °C 29.90in /  1012.4hPa NNE 8.1mph /  13km/h 8.1mph /  13km/h 92% 0.00in /  0mm WeatherDisplay:10.37 W/m2 -DZ
06:56 47.4 °F /  8.6 °C 45.2 °F /  7.3 °C 29.90in /  1012.4hPa NNE 15.0mph /  24.1km/h 15.0mph /  24.1km/h 92% 0.00in /  0mm WeatherDisplay:10.37 W/m2 -DZ
07:01 47.5 °F /  8.6 °C 45.3 °F /  7.4 °C 29.91in /  1012.8hPa NNE 11.5mph /  18.5km/h 11.5mph /  18.5km/h 92% 0.00in /  0mm WeatherDisplay:10.37 W/m2 -RA
07:06 47.4 °F /  8.6 °C 45.2 °F /  7.3 °C 29.91in /  1012.8hPa North 16.0mph /  25.7km/h 16.0mph /  25.7km/h 92% 0.00in /  0mm WeatherDisplay:10.37 W/m2 -RA
07:11 47.4 °F /  8.6 °C 45.4 °F /  7.4 °C 29.91in /  1012.8hPa NNE 9.2mph /  14.8km/h 9.2mph /  14.8km/h 93% 0.00in /  0mm WeatherDisplay:10.37 W/m2 -RA
07:16 47.4 °F /  8.6 °C 45.4 °F /  7.4 °C 29.90in /  1012.4hPa NE 9.2mph /  14.8km/h 9.2mph /  14.8km/h 93% 0.00in /  0mm WeatherDisplay:10.37 W/m2 -RA
07:21 47.4 °F /  8.6 °C 45.4 °F /  7.4 °C 29.90in /  1012.4hPa NNE 11.5mph /  18.5km/h 11.5mph /  18.5km/h 93% 0.00in /  0mm WeatherDisplay:10.37 W/m2 OVC
Smyth Weather
Compliments of Weather Underground - 2 mb